ADDS METAR Data INFO
IDs: Format: Raw Decoded Include TAF

Data at: 1749 UTC 21 Oct 2017

METAR for:KVRB (Vero Beach Muni, FL, US)
Text:KVRB 211653Z 09015KT 10SM FEW034 BKN044 28/21 A3014 RMK AO2 SLP205 T02830206
Temperature: 28.3°C ( 83°F)
Dewpoint: 20.6°C ( 69°F) [RH = 63%]
Pressure (altimeter):30.14 inches Hg (1020.7 mb) [Sea level pressure: 1020.5 mb]
Winds:from the E (90 degrees) at 17 MPH (15 knots; 7.7 m/s)
Visibility:10 or more sm (16+ km)
Ceiling:4400 feet AGL
Clouds: few clouds at 3400 feet AGL, broken clouds at 4400 feet AGL